Gandy, Nebraska
Current Conditions -  °F | °C
As of 2:55 AM on Wednesday 26 Nov 2014 (Local Time) from KTIF Reporting Station
Overcast Overcast  
Wind Chill: 22°   Ceiling: 3900
Heat Index: 35°   Visibility: 10mi
Dew Point: 25°   Wind: 25mph
Humidity: 68%   Direction: 330°NNW
Pressure: 30"   Gusts: 39mph
Location:  41.5665°N, 100.482°W
Report Text: KTIF 260855Z AUTO 33022G34KT 10SM SCT030 BKN039 OVC045 01/M04 A3000 RMK AO2 T00141040
Loading
Personal Weather Stations






























Interactive Weather Map New forecast layout! Learn more

10-Day Weather Forecast

Advertisements
Track Severe Weather on mobile